SGR1705 KMSP-KDSM
Flight info
| Callsign | SGR1705 |
|---|---|
| Flight time | N/A |
| Altitude | 30000 |
| Route | ORSKY3 ORSKY FOD/N0471F290 DSM |
| Aircraft | E170/M-SDE3GILORVW/S |
Departure
| Time | 2026-05-07 08:22 |
|---|---|
| Airport | Minneapolis–Saint Paul International Airport / Wold–Chamberlain Field (KMSP) |
Arrival
| Time | N/A |
|---|---|
| Airport | Des Moines International Airport (KDSM) |
| Time | Latitude | Longitude | Altitude | Speed | Heading |
|---|---|---|---|---|---|
| 2026-05-07 08:07 | 44.88048 | -93.19791 | 809 ft | 0 kts | 215° |
| 2026-05-07 08:16 | 44.88054 | -93.19785 | 809 ft | 2 kts | 215° |
| 2026-05-07 08:17 | 44.88066 | -93.19772 | 809 ft | 2 kts | 213° |
| 2026-05-07 08:17 | 44.88079 | -93.19772 | 809 ft | 2 kts | 152° |
| 2026-05-07 08:17 | 44.88088 | -93.19786 | 809 ft | 1 kts | 111° |
| 2026-05-07 08:17 | 44.88089 | -93.19791 | 809 ft | 0 kts | 114° |
| 2026-05-07 08:19 | 44.88089 | -93.19786 | 809 ft | 1 kts | 106° |
| 2026-05-07 08:19 | 44.88090 | -93.19764 | 809 ft | 3 kts | 78° |
| 2026-05-07 08:20 | 44.88090 | -93.19730 | 809 ft | 4 kts | 111° |
| 2026-05-07 08:20 | 44.88076 | -93.19685 | 808 ft | 5 kts | 100° |
| 2026-05-07 08:20 | 44.88096 | -93.19640 | 808 ft | 6 kts | 31° |
| 2026-05-07 08:20 | 44.88136 | -93.19609 | 808 ft | 6 kts | 28° |
| 2026-05-07 08:21 | 44.88183 | -93.19586 | 809 ft | 7 kts | 356° |
| 2026-05-07 08:21 | 44.88225 | -93.19632 | 809 ft | 8 kts | 306° |
| 2026-05-07 08:21 | 44.88271 | -93.19736 | 810 ft | 27 kts | 301° |
| 2026-05-07 08:21 | 44.88518 | -93.20306 | 815 ft | 105 kts | 301° |
| 2026-05-07 08:22 | 44.89006 | -93.21444 | 860 ft | 159 kts | 301° |
| 2026-05-07 08:22 | 44.89592 | -93.22762 | 1606 ft | 158 kts | 302° |
| 2026-05-07 08:22 | 44.90158 | -93.23986 | 2473 ft | 150 kts | 301° |
| 2026-05-07 08:22 | 44.90662 | -93.25343 | 2932 ft | 168 kts | 291° |
| 2026-05-07 08:23 | 44.90910 | -93.27089 | 3126 ft | 203 kts | 258° |
| 2026-05-07 08:23 | 44.90135 | -93.28796 | 3675 ft | 223 kts | 214° |
| 2026-05-07 08:23 | 44.88610 | -93.29435 | 4336 ft | 240 kts | 188° |
| 2026-05-07 08:23 | 44.86893 | -93.29640 | 4890 ft | 258 kts | 188° |
| 2026-05-07 08:24 | 44.85062 | -93.29851 | 5600 ft | 269 kts | 188° |
| 2026-05-07 08:24 | 44.83192 | -93.30067 | 6425 ft | 274 kts | 189° |
| 2026-05-07 08:24 | 44.81309 | -93.30282 | 7274 ft | 277 kts | 189° |
| 2026-05-07 08:24 | 44.79404 | -93.30700 | 8122 ft | 275 kts | 202° |
| 2026-05-07 08:25 | 44.77671 | -93.31656 | 8936 ft | 273 kts | 211° |
| 2026-05-07 08:25 | 44.75991 | -93.32920 | 9747 ft | 273 kts | 216° |
| 2026-05-07 08:25 | 44.74383 | -93.34306 | 10499 ft | 275 kts | 219° |
| 2026-05-07 08:25 | 44.72778 | -93.35780 | 11134 ft | 282 kts | 219° |
| 2026-05-07 08:26 | 44.69392 | -93.39005 | 12185 ft | 304 kts | 220° |
| 2026-05-07 08:26 | 44.67626 | -93.40706 | 12772 ft | 312 kts | 220° |
| 2026-05-07 08:26 | 44.65839 | -93.42430 | 13452 ft | 316 kts | 220° |
| 2026-05-07 08:27 | 44.64037 | -93.44170 | 14181 ft | 318 kts | 220° |
| 2026-05-07 08:27 | 44.62220 | -93.45925 | 14890 ft | 319 kts | 220° |
| 2026-05-07 08:27 | 44.60371 | -93.47625 | 15549 ft | 324 kts | 216° |
| 2026-05-07 08:27 | 44.58405 | -93.49233 | 16181 ft | 327 kts | 216° |
| 2026-05-07 08:28 | 44.56435 | -93.50838 | 16817 ft | 331 kts | 215° |
| 2026-05-07 08:28 | 44.54436 | -93.52463 | 17463 ft | 333 kts | 215° |
| 2026-05-07 08:28 | 44.52426 | -93.54096 | 18088 ft | 336 kts | 215° |
| 2026-05-07 08:28 | 44.50425 | -93.55720 | 18679 ft | 339 kts | 215° |
| 2026-05-07 08:29 | 44.48373 | -93.57384 | 19299 ft | 341 kts | 215° |
| 2026-05-07 08:29 | 44.46304 | -93.59060 | 19912 ft | 344 kts | 215° |
| 2026-05-07 08:29 | 44.44237 | -93.60733 | 20489 ft | 347 kts | 215° |
| 2026-05-07 08:29 | 44.42151 | -93.62421 | 21056 ft | 351 kts | 215° |
| 2026-05-07 08:30 | 44.40031 | -93.64133 | 21626 ft | 354 kts | 215° |
| 2026-05-07 08:30 | 44.37881 | -93.65869 | 22162 ft | 357 kts | 214° |
| 2026-05-07 08:30 | 44.35734 | -93.67601 | 22709 ft | 360 kts | 214° |
| 2026-05-07 08:30 | 44.33546 | -93.69364 | 23255 ft | 363 kts | 214° |
| 2026-05-07 08:31 | 44.31359 | -93.71126 | 23793 ft | 365 kts | 214° |
| 2026-05-07 08:31 | 44.29149 | -93.72905 | 24297 ft | 369 kts | 214° |
| 2026-05-07 08:31 | 44.26921 | -93.74696 | 24772 ft | 372 kts | 214° |
| 2026-05-07 08:31 | 44.24703 | -93.76476 | 25214 ft | 375 kts | 214° |
| 2026-05-07 08:32 | 44.22429 | -93.78301 | 25678 ft | 378 kts | 214° |
| 2026-05-07 08:32 | 44.20153 | -93.80125 | 26131 ft | 380 kts | 215° |
| 2026-05-07 08:32 | 44.17852 | -93.81969 | 26549 ft | 383 kts | 215° |
| 2026-05-07 08:32 | 44.15523 | -93.83833 | 26933 ft | 386 kts | 215° |
| 2026-05-07 08:33 | 44.13212 | -93.85680 | 27324 ft | 389 kts | 215° |
| 2026-05-07 08:33 | 44.10831 | -93.87582 | 27676 ft | 392 kts | 215° |
| 2026-05-07 08:33 | 44.08484 | -93.89455 | 28037 ft | 395 kts | 215° |
| 2026-05-07 08:33 | 44.06094 | -93.91361 | 28366 ft | 398 kts | 216° |
| 2026-05-07 08:34 | 44.03698 | -93.93269 | 28669 ft | 400 kts | 215° |
| 2026-05-07 08:34 | 44.01275 | -93.95199 | 28949 ft | 403 kts | 215° |
| 2026-05-07 08:34 | 43.98815 | -93.97154 | 29224 ft | 406 kts | 216° |
| 2026-05-07 08:34 | 43.96378 | -93.99090 | 29494 ft | 408 kts | 216° |
| 2026-05-07 08:35 | 43.93926 | -94.01035 | 29738 ft | 410 kts | 216° |
| 2026-05-07 08:35 | 43.91475 | -94.02976 | 29922 ft | 404 kts | 216° |
| 2026-05-07 08:35 | 43.86482 | -94.06932 | 29983 ft | 419 kts | 216° |
| 2026-05-07 08:36 | 43.81342 | -94.10994 | 29984 ft | 436 kts | 216° |
| 2026-05-07 08:36 | 43.76024 | -94.15185 | 29981 ft | 445 kts | 216° |
| 2026-05-07 08:37 | 43.70667 | -94.19398 | 29982 ft | 444 kts | 216° |
| 2026-05-07 08:37 | 43.64783 | -94.22356 | 29984 ft | 461 kts | 195° |
| 2026-05-07 08:38 | 43.58310 | -94.22903 | 29986 ft | 469 kts | 189° |
| 2026-05-07 08:38 | 43.51792 | -94.23349 | 29986 ft | 469 kts | 189° |
| 2026-05-07 08:39 | 43.45296 | -94.23795 | 29978 ft | 470 kts | 189° |
| 2026-05-07 08:39 | 43.38755 | -94.24242 | 29980 ft | 471 kts | 189° |
| 2026-05-07 08:40 | 43.32241 | -94.24687 | 29975 ft | 470 kts | 189° |
| 2026-05-07 08:40 | 43.25726 | -94.25131 | 29979 ft | 471 kts | 190° |
| 2026-05-07 08:41 | 43.19186 | -94.25575 | 29980 ft | 471 kts | 190° |
| 2026-05-07 08:41 | 43.12640 | -94.26019 | 29980 ft | 472 kts | 190° |
| 2026-05-07 08:42 | 43.06110 | -94.26462 | 29984 ft | 474 kts | 190° |
| 2026-05-07 08:42 | 42.99531 | -94.26905 | 29982 ft | 471 kts | 191° |
| 2026-05-07 08:43 | 42.92993 | -94.27347 | 29989 ft | 473 kts | 191° |
| 2026-05-07 08:43 | 42.86443 | -94.27787 | 29981 ft | 471 kts | 191° |
| 2026-05-07 08:44 | 42.79852 | -94.28230 | 29980 ft | 474 kts | 191° |
| 2026-05-07 08:44 | 42.73255 | -94.28672 | 29983 ft | 472 kts | 191° |
| 2026-05-07 08:45 | 42.66730 | -94.29105 | 29970 ft | 459 kts | 191° |
| 2026-05-07 08:45 | 42.60289 | -94.28676 | 29983 ft | 474 kts | 176° |
| 2026-05-07 08:46 | 42.57072 | -94.27513 | 29690 ft | 485 kts | 167° |
| 2026-05-07 08:46 | 42.53957 | -94.25701 | 29152 ft | 484 kts | 160° |
| 2026-05-07 08:46 | 42.50917 | -94.23830 | 28606 ft | 475 kts | 163° |
| 2026-05-07 08:46 | 42.47897 | -94.22095 | 28100 ft | 470 kts | 163° |
| 2026-05-07 08:47 | 42.44910 | -94.20412 | 27568 ft | 464 kts | 164° |
| 2026-05-07 08:47 | 42.41935 | -94.18748 | 27074 ft | 462 kts | 164° |
| 2026-05-07 08:47 | 42.38960 | -94.17087 | 26523 ft | 455 kts | 164° |
| 2026-05-07 08:47 | 42.36085 | -94.15485 | 26024 ft | 451 kts | 164° |
| 2026-05-07 08:48 | 42.33199 | -94.13879 | 25534 ft | 446 kts | 164° |
| 2026-05-07 08:48 | 42.30312 | -94.12273 | 25018 ft | 443 kts | 165° |
| 2026-05-07 08:48 | 42.27485 | -94.10702 | 24544 ft | 439 kts | 164° |
| 2026-05-07 08:48 | 42.24675 | -94.09142 | 24052 ft | 436 kts | 165° |
| 2026-05-07 08:49 | 42.21908 | -94.07608 | 23563 ft | 432 kts | 165° |
| 2026-05-07 08:49 | 42.19121 | -94.06063 | 23086 ft | 427 kts | 165° |
| 2026-05-07 08:49 | 42.16411 | -94.04564 | 22617 ft | 425 kts | 165° |
| 2026-05-07 08:49 | 42.13679 | -94.03052 | 22173 ft | 419 kts | 165° |
| 2026-05-07 08:50 | 42.10978 | -94.01561 | 21705 ft | 416 kts | 165° |
| 2026-05-07 08:50 | 42.08328 | -94.00098 | 21248 ft | 413 kts | 165° |
| 2026-05-07 08:50 | 42.05704 | -93.98651 | 20807 ft | 411 kts | 165° |
| 2026-05-07 08:50 | 42.03068 | -93.97198 | 20359 ft | 404 kts | 165° |
| 2026-05-07 08:51 | 42.00487 | -93.95779 | 19918 ft | 400 kts | 164° |
| 2026-05-07 08:51 | 41.97930 | -93.94370 | 19479 ft | 395 kts | 165° |
| 2026-05-07 08:51 | 41.95412 | -93.92987 | 19049 ft | 392 kts | 165° |
| 2026-05-07 08:51 | 41.92900 | -93.91608 | 18625 ft | 390 kts | 164° |
| 2026-05-07 08:52 | 41.90379 | -93.90225 | 18166 ft | 385 kts | 164° |
| 2026-05-07 08:52 | 41.87904 | -93.88869 | 17753 ft | 383 kts | 164° |
| 2026-05-07 08:52 | 41.85446 | -93.87524 | 17330 ft | 380 kts | 164° |
| 2026-05-07 08:52 | 41.83027 | -93.86198 | 16917 ft | 376 kts | 164° |
| 2026-05-07 08:53 | 41.80600 | -93.84872 | 16504 ft | 376 kts | 164° |
| 2026-05-07 08:53 | 41.78208 | -93.83566 | 16089 ft | 372 kts | 164° |
| 2026-05-07 08:53 | 41.75859 | -93.82280 | 15600 ft | 352 kts | 164° |
| 2026-05-07 08:53 | 41.73673 | -93.81083 | 15273 ft | 325 kts | 165° |
| 2026-05-07 08:54 | 41.71677 | -93.79994 | 14951 ft | 303 kts | 165° |
| 2026-05-07 08:54 | 41.69759 | -93.78951 | 14659 ft | 289 kts | 165° |
| 2026-05-07 08:54 | 41.67901 | -93.77943 | 14352 ft | 289 kts | 165° |
| 2026-05-07 08:54 | 41.66040 | -93.76933 | 14025 ft | 288 kts | 164° |
| 2026-05-07 08:55 | 41.64194 | -93.75929 | 13694 ft | 287 kts | 164° |
| 2026-05-07 08:55 | 41.62658 | -93.75095 | 13433 ft | 285 kts | 164° |